Aviation Digital Data Service (ADDS)

Output produced by METARs form (2050 UTC 20 December 2014)
found at http://aviationweather.gov/adds/metars/
 
KRUT 201734Z 2018/2118 03003KT P6SM SKC 
     FM202100 VRB03KT P6SM SCT020 BKN060 
     FM210600 VRB03KT P6SM BKN030 
     FM211500 00000KT P6SM BKN020 AMD LTD TO CLD VIS AND WIND